createdAt,value
2023-05-30T00:00:59.221Z,82
2023-05-30T00:02:06.140Z,82
2023-05-30T00:03:13.515Z,82
2023-05-30T00:04:19.722Z,82
2023-05-30T00:05:26.850Z,82
2023-05-30T00:06:33.884Z,82
2023-05-30T00:07:41.037Z,82
2023-05-30T00:08:47.693Z,82
2023-05-30T00:09:54.681Z,82
2023-05-30T00:11:01.801Z,82
2023-05-30T00:12:09.014Z,82
2023-05-30T00:13:16.066Z,82
2023-05-30T00:14:22.622Z,82
2023-05-30T00:15:29.769Z,82
2023-05-30T00:16:36.883Z,82
2023-05-30T00:17:44.041Z,83
2023-05-30T00:18:51.032Z,83
2023-05-30T00:19:57.611Z,83
2023-05-30T00:21:04.752Z,83
2023-05-30T00:22:11.895Z,83
2023-05-30T00:23:18.998Z,83
2023-05-30T00:24:26.131Z,83
2023-05-30T00:26:39.742Z,83
2023-05-30T00:27:46.852Z,83
2023-05-30T00:28:53.995Z,83
2023-05-30T00:30:01.041Z,83
2023-05-30T00:31:07.688Z,83
2023-05-30T00:32:14.780Z,83
2023-05-30T00:33:22.013Z,83
2023-05-30T00:34:28.949Z,83
2023-05-30T00:35:36.064Z,83
2023-05-30T00:36:42.611Z,83
2023-05-30T00:37:49.750Z,83
2023-05-30T00:38:56.922Z,83
2023-05-30T00:40:03.924Z,83
2023-05-30T00:42:17.636Z,84
2023-05-30T00:43:24.741Z,84
2023-05-30T00:44:32.395Z,84
2023-05-30T00:45:38.979Z,84
2023-05-30T00:46:46.093Z,84
2023-05-30T00:47:52.719Z,84
2023-05-30T00:48:59.839Z,84
2023-05-30T00:50:06.854Z,84
2023-05-30T00:51:13.971Z,84
2023-05-30T00:52:21.060Z,84
2023-05-30T00:53:27.669Z,84
2023-05-30T00:54:34.756Z,84
2023-05-30T00:55:41.838Z,84
2023-05-30T00:56:49.051Z,84
2023-05-30T00:57:56.081Z,84
2023-05-30T00:59:02.665Z,84
2023-05-30T01:00:09.741Z,84
2023-05-30T01:01:16.973Z,84
2023-05-30T01:02:24.058Z,84
2023-05-30T01:03:31.235Z,84
2023-05-30T01:04:37.715Z,84
2023-05-30T01:05:44.815Z,85
2023-05-30T01:06:51.846Z,85
2023-05-30T01:07:58.988Z,85
2023-05-30T01:09:06.117Z,85
2023-05-30T01:10:12.668Z,85
2023-05-30T01:11:19.789Z,85
2023-05-30T01:12:26.895Z,85
2023-05-30T01:13:34.000Z,85
2023-05-30T01:14:41.118Z,85
2023-05-30T01:15:47.748Z,85
2023-05-30T01:16:54.810Z,85
2023-05-30T01:18:01.897Z,85
2023-05-30T01:19:09.165Z,85
2023-05-30T01:20:16.192Z,85
2023-05-30T01:21:22.666Z,85
2023-05-30T01:22:29.821Z,85
2023-05-30T01:23:36.926Z,85
2023-05-30T01:24:43.975Z,85
2023-05-30T01:25:51.130Z,85
2023-05-30T01:26:57.737Z,85
2023-05-30T01:28:04.799Z,85
2023-05-30T01:30:19.121Z,85
2023-05-30T01:31:26.154Z,85
2023-05-30T01:32:32.778Z,85
2023-05-30T01:33:39.965Z,85
2023-05-30T01:34:46.951Z,85
2023-05-30T01:35:54.057Z,85
2023-05-30T01:37:01.198Z,85
2023-05-30T01:38:07.725Z,85
2023-05-30T01:39:14.851Z,85
2023-05-30T01:40:21.939Z,85
2023-05-30T01:41:29.049Z,85
2023-05-30T01:42:35.618Z,85
2023-05-30T01:43:42.734Z,86
2023-05-30T01:44:49.830Z,86
2023-05-30T01:45:56.999Z,86
2023-05-30T01:47:04.014Z,86
2023-05-30T01:48:11.211Z,86
2023-05-30T01:49:17.780Z,86
2023-05-30T01:50:24.905Z,86
2023-05-30T01:51:31.941Z,86
2023-05-30T01:52:39.086Z,86
2023-05-30T01:53:45.634Z,86
2023-05-30T01:54:52.740Z,86
2023-05-30T01:55:59.838Z,86
2023-05-30T01:57:06.961Z,86
2023-05-30T01:58:14.071Z,86
2023-05-30T01:59:21.240Z,86
2023-05-30T02:00:27.805Z,86
2023-05-30T02:01:34.939Z,86
2023-05-30T02:02:42.024Z,86
2023-05-30T02:03:49.057Z,86
2023-05-30T02:04:55.836Z,86
2023-05-30T02:06:02.909Z,86
2023-05-30T02:07:09.892Z,87
2023-05-30T02:08:16.962Z,87
2023-05-30T02:10:30.675Z,87
2023-05-30T02:11:37.792Z,87
2023-05-30T02:12:44.880Z,86
2023-05-30T02:13:51.966Z,87
2023-05-30T02:14:59.134Z,87
2023-05-30T02:16:05.704Z,87
2023-05-30T02:17:12.779Z,87
2023-05-30T02:18:19.888Z,87
2023-05-30T02:19:27.014Z,87
2023-05-30T02:20:34.127Z,87
2023-05-30T02:21:40.703Z,87
2023-05-30T02:22:47.815Z,87
2023-05-30T02:23:54.976Z,87
2023-05-30T02:25:02.041Z,87
2023-05-30T02:26:09.108Z,87
2023-05-30T02:27:15.706Z,87
2023-05-30T02:28:22.765Z,87
2023-05-30T02:29:29.947Z,87
2023-05-30T02:30:37.057Z,87
2023-05-30T02:31:44.095Z,87
2023-05-30T02:33:57.911Z,87
2023-05-30T02:35:04.904Z,87
2023-05-30T02:36:14.154Z,87
2023-05-30T02:37:19.173Z,87
2023-05-30T02:38:25.754Z,87
2023-05-30T02:39:32.826Z,87
2023-05-30T02:40:39.911Z,87
2023-05-30T02:41:47.059Z,87
2023-05-30T02:42:54.088Z,87
2023-05-30T02:44:00.697Z,87
2023-05-30T02:45:07.878Z,87
2023-05-30T02:46:14.997Z,87
2023-05-30T02:47:22.023Z,87
2023-05-30T02:48:29.172Z,87
2023-05-30T02:49:35.751Z,87
2023-05-30T02:50:42.935Z,87
2023-05-30T02:51:50.411Z,87
2023-05-30T02:52:57.058Z,88
2023-05-30T02:54:04.144Z,87
2023-05-30T02:55:10.769Z,88
2023-05-30T02:56:17.848Z,88
2023-05-30T02:57:24.967Z,88
2023-05-30T02:58:32.016Z,88
2023-05-30T02:59:39.175Z,88
2023-05-30T03:00:45.719Z,88
2023-05-30T03:01:52.964Z,88
2023-05-30T03:02:59.996Z,88
2023-05-30T03:04:07.111Z,88
2023-05-30T03:05:13.662Z,88
2023-05-30T03:06:20.764Z,88
2023-05-30T03:07:27.935Z,88
2023-05-30T03:08:34.992Z,88
2023-05-30T03:09:42.050Z,88
2023-05-30T03:10:48.649Z,88
2023-05-30T03:11:55.761Z,88
2023-05-30T03:13:02.819Z,88
2023-05-30T03:14:10.021Z,88
2023-05-30T03:15:17.070Z,88
2023-05-30T03:16:23.752Z,88
2023-05-30T03:17:30.763Z,88
2023-05-30T03:18:37.909Z,88
2023-05-30T03:19:45.032Z,88
2023-05-30T03:20:52.108Z,89
2023-05-30T03:21:58.701Z,89
2023-05-30T03:23:05.819Z,89
2023-05-30T03:24:12.965Z,89
2023-05-30T03:25:19.985Z,89
2023-05-30T03:26:27.114Z,89
2023-05-30T03:27:33.660Z,89
2023-05-30T03:28:40.775Z,89
2023-05-30T03:29:47.913Z,89
2023-05-30T03:30:55.539Z,89
2023-05-30T03:32:02.208Z,89
2023-05-30T03:33:08.665Z,89
2023-05-30T03:34:15.901Z,89
2023-05-30T03:35:22.860Z,89
2023-05-30T03:38:43.649Z,89
2023-05-30T03:39:50.782Z,89
2023-05-30T03:40:58.195Z,89
2023-05-30T03:42:05.046Z,90
2023-05-30T03:43:12.077Z,90
2023-05-30T03:44:18.828Z,90
2023-05-30T03:45:25.833Z,90
2023-05-30T03:46:33.016Z,90
2023-05-30T03:47:40.086Z,90
2023-05-30T03:48:47.122Z,90
2023-05-30T03:49:54.907Z,90
2023-05-30T03:51:00.792Z,90
2023-05-30T03:52:07.910Z,90
2023-05-30T03:53:15.018Z,90
2023-05-30T03:54:22.118Z,90
2023-05-30T03:55:29.259Z,90
2023-05-30T03:56:35.795Z,90
2023-05-30T03:57:42.949Z,90
2023-05-30T03:58:50.086Z,90
2023-05-30T03:59:57.172Z,90
2023-05-30T04:01:03.721Z,90
2023-05-30T04:02:10.839Z,90
2023-05-30T04:03:18.001Z,90
2023-05-30T04:04:25.066Z,90
2023-05-30T04:05:32.096Z,90
2023-05-30T04:06:38.732Z,90
2023-05-30T04:07:45.851Z,90
2023-05-30T04:08:52.943Z,90
2023-05-30T04:10:00.083Z,90
2023-05-30T04:11:07.149Z,90
2023-05-30T04:12:13.743Z,90
2023-05-30T04:13:20.841Z,90
2023-05-30T04:14:29.594Z,90
2023-05-30T04:15:35.031Z,90
2023-05-30T04:16:42.154Z,90
2023-05-30T04:17:48.774Z,90
2023-05-30T04:18:55.835Z,90
2023-05-30T04:20:02.970Z,90
2023-05-30T04:21:10.061Z,90
2023-05-30T04:22:17.252Z,90
2023-05-30T04:23:23.737Z,90
2023-05-30T04:24:30.800Z,91
2023-05-30T04:25:37.956Z,90
2023-05-30T04:26:45.066Z,91
2023-05-30T04:27:52.120Z,90
2023-05-30T04:28:58.839Z,90
2023-05-30T04:30:05.848Z,90
2023-05-30T04:31:21.461Z,91
2023-05-30T04:32:20.160Z,91
2023-05-30T04:33:27.168Z,91
2023-05-30T04:34:33.734Z,91
2023-05-30T04:35:40.842Z,91
2023-05-30T04:36:47.969Z,91
2023-05-30T04:37:55.146Z,91
2023-05-30T04:39:02.239Z,91
2023-05-30T04:41:15.904Z,91
2023-05-30T04:42:22.950Z,91
2023-05-30T04:43:30.083Z,91
2023-05-30T04:44:36.690Z,91
2023-05-30T04:45:43.812Z,91
2023-05-30T04:46:50.862Z,91
2023-05-30T04:47:58.145Z,91
2023-05-30T04:49:05.108Z,91
2023-05-30T04:50:11.676Z,91
2023-05-30T04:51:18.751Z,91
2023-05-30T04:52:25.870Z,91
2023-05-30T04:53:32.989Z,91
2023-05-30T04:54:40.168Z,91
2023-05-30T04:55:46.726Z,91
2023-05-30T04:56:53.775Z,91
2023-05-30T04:58:00.848Z,91
2023-05-30T04:59:08.557Z,91
2023-05-30T05:00:15.392Z,91
2023-05-30T05:01:21.711Z,91
2023-05-30T05:02:28.763Z,91
2023-05-30T05:03:36.004Z,91
2023-05-30T05:04:42.963Z,91
2023-05-30T05:06:56.766Z,91
2023-05-30T05:08:03.766Z,91
2023-05-30T05:09:10.927Z,91
2023-05-30T05:10:18.064Z,91
2023-05-30T05:11:25.139Z,92
2023-05-30T05:12:31.685Z,92
2023-05-30T05:13:38.948Z,92
2023-05-30T05:14:45.992Z,92
2023-05-30T05:15:52.995Z,92
2023-05-30T05:17:00.162Z,92
2023-05-30T05:18:06.780Z,92
2023-05-30T05:19:13.832Z,92
2023-05-30T05:20:20.968Z,92
2023-05-30T05:21:28.107Z,92
2023-05-30T05:22:35.157Z,92
2023-05-30T05:23:41.728Z,92
2023-05-30T05:24:48.936Z,92
2023-05-30T05:25:55.941Z,92
2023-05-30T05:27:03.018Z,92
2023-05-30T05:28:10.154Z,92
2023-05-30T05:29:16.713Z,92
2023-05-30T05:30:23.820Z,92
2023-05-30T05:31:31.002Z,92
2023-05-30T05:32:38.084Z,92
2023-05-30T05:33:45.163Z,92
2023-05-30T05:34:51.696Z,92
2023-05-30T05:35:58.883Z,92
2023-05-30T05:37:05.983Z,92
2023-05-30T05:38:13.032Z,92
2023-05-30T05:39:20.152Z,92
2023-05-30T05:40:26.763Z,92
2023-05-30T05:41:33.853Z,91
2023-05-30T05:42:41.460Z,91
2023-05-30T05:44:54.678Z,92
2023-05-30T05:46:01.789Z,91
2023-05-30T05:47:08.908Z,91
2023-05-30T05:48:15.976Z,91
2023-05-30T05:49:23.069Z,91
2023-05-30T05:50:29.676Z,92
2023-05-30T05:51:36.756Z,91
2023-05-30T05:52:43.843Z,92
2023-05-30T05:53:50.969Z,92
2023-05-30T05:54:58.073Z,92
2023-05-30T05:56:05.192Z,92
2023-05-30T05:57:11.745Z,92
2023-05-30T05:58:18.920Z,92
2023-05-30T05:59:26.006Z,92
2023-05-30T06:00:33.071Z,92
2023-05-30T06:01:40.330Z,91
2023-05-30T06:02:52.875Z,91
2023-05-30T06:03:53.901Z,92
2023-05-30T06:05:00.962Z,91
2023-05-30T06:06:08.124Z,91
2023-05-30T06:07:14.733Z,91
2023-05-30T06:08:21.792Z,91
2023-05-30T06:09:28.891Z,91
2023-05-30T06:10:36.008Z,91
2023-05-30T06:11:43.055Z,91
2023-05-30T06:12:49.725Z,91
2023-05-30T06:13:56.821Z,91
2023-05-30T06:15:03.954Z,91
2023-05-30T06:16:14.011Z,91
2023-05-30T06:17:18.177Z,91
2023-05-30T06:18:24.717Z,91
2023-05-30T06:19:31.797Z,91
2023-05-30T06:20:38.915Z,91
2023-05-30T06:21:46.046Z,91
2023-05-30T06:22:53.082Z,91
2023-05-30T06:23:59.716Z,91
2023-05-30T06:25:06.852Z,91
2023-05-30T06:26:14.215Z,91
2023-05-30T06:27:21.094Z,91
2023-05-30T06:28:28.132Z,91
2023-05-30T06:29:34.799Z,91
2023-05-30T06:30:41.793Z,91
2023-05-30T06:31:50.322Z,91
2023-05-30T06:32:56.098Z,91
2023-05-30T06:35:09.751Z,91
2023-05-30T06:36:16.828Z,90
2023-05-30T06:37:23.878Z,90
2023-05-30T06:38:30.987Z,90
2023-05-30T06:39:40.091Z,90
2023-05-30T06:40:44.707Z,90
2023-05-30T06:41:51.815Z,90
2023-05-30T06:42:58.970Z,90
2023-05-30T06:44:06.107Z,89
2023-05-30T06:45:13.170Z,89
2023-05-30T06:46:19.767Z,89
2023-05-30T06:48:33.919Z,89
2023-05-30T06:49:41.025Z,89
2023-05-30T06:50:48.132Z,89
2023-05-30T06:51:54.720Z,89
2023-05-30T06:53:01.844Z,89
2023-05-30T06:54:08.957Z,89
2023-05-30T06:55:16.087Z,89
2023-05-30T06:56:23.109Z,89
2023-05-30T06:57:29.757Z,89
2023-05-30T06:58:36.898Z,89
2023-05-30T06:59:43.990Z,89
2023-05-30T07:00:51.107Z,89
2023-05-30T07:01:57.747Z,88
2023-05-30T07:03:04.887Z,88
2023-05-30T07:04:11.807Z,88
2023-05-30T07:05:18.980Z,88
2023-05-30T07:06:26.205Z,88
2023-05-30T07:07:32.633Z,88
2023-05-30T07:08:40.123Z,88
2023-05-30T07:09:46.861Z,88
2023-05-30T07:10:54.465Z,88
2023-05-30T07:12:01.028Z,88
2023-05-30T07:13:07.680Z,88
2023-05-30T07:14:14.812Z,88
2023-05-30T07:15:21.905Z,88
2023-05-30T07:16:29.057Z,88
2023-05-30T07:17:36.099Z,88
2023-05-30T07:18:44.607Z,88
2023-05-30T07:19:49.772Z,88
2023-05-30T07:20:57.156Z,88
2023-05-30T07:22:03.940Z,88
2023-05-30T07:23:11.081Z,88
2023-05-30T07:24:17.748Z,88
2023-05-30T07:25:24.780Z,88
2023-05-30T07:26:31.888Z,88
2023-05-30T07:27:39.039Z,88
2023-05-30T07:28:46.087Z,88
2023-05-30T07:29:52.694Z,88
2023-05-30T07:30:59.784Z,88
2023-05-30T07:32:06.933Z,87
2023-05-30T07:33:14.015Z,87
2023-05-30T07:34:21.429Z,87
2023-05-30T07:35:27.756Z,87
2023-05-30T07:36:34.831Z,87
2023-05-30T07:37:41.905Z,87
2023-05-30T07:38:49.056Z,87
2023-05-30T07:39:56.113Z,87
2023-05-30T07:41:02.661Z,87
2023-05-30T07:42:09.825Z,87
2023-05-30T07:43:16.903Z,87
2023-05-30T07:44:24.064Z,87
2023-05-30T07:45:31.175Z,87
2023-05-30T07:46:37.781Z,87
2023-05-30T07:47:44.887Z,87
2023-05-30T07:48:51.915Z,87
2023-05-30T07:52:12.824Z,86
2023-05-30T07:53:19.833Z,86
2023-05-30T07:54:26.951Z,86
2023-05-30T07:55:34.028Z,86
2023-05-30T07:56:41.091Z,86
2023-05-30T07:57:47.730Z,86
2023-05-30T07:58:54.950Z,86
2023-05-30T08:00:01.934Z,86
2023-05-30T08:01:09.037Z,86
2023-05-30T08:03:22.811Z,86
2023-05-30T08:04:30.067Z,86
2023-05-30T08:05:36.964Z,86
2023-05-30T08:06:44.048Z,86
2023-05-30T08:07:51.129Z,86
2023-05-30T08:08:57.732Z,86
2023-05-30T08:10:05.383Z,85
2023-05-30T08:11:11.904Z,85
2023-05-30T08:12:19.136Z,85
2023-05-30T08:13:25.731Z,85
2023-05-30T08:14:32.743Z,85
2023-05-30T08:15:39.925Z,85
2023-05-30T08:16:47.014Z,85
2023-05-30T08:17:54.089Z,85
2023-05-30T08:19:00.641Z,85
2023-05-30T08:20:07.841Z,85
2023-05-30T08:21:14.875Z,85
2023-05-30T08:22:21.921Z,85
2023-05-30T08:23:29.092Z,84
2023-05-30T08:24:35.675Z,84
2023-05-30T08:25:42.751Z,84
2023-05-30T08:26:50.077Z,84
2023-05-30T08:27:56.969Z,84
2023-05-30T08:29:04.074Z,84
2023-05-30T08:30:10.662Z,84
2023-05-30T08:31:17.798Z,83
2023-05-30T08:32:24.887Z,83
2023-05-30T08:33:31.983Z,83
2023-05-30T08:34:39.136Z,83
2023-05-30T08:35:45.686Z,83
2023-05-30T08:36:52.756Z,83
2023-05-30T08:37:59.919Z,83
2023-05-30T08:39:14.947Z,83
2023-05-30T08:40:20.239Z,83
2023-05-30T08:41:20.659Z,83
2023-05-30T08:42:27.787Z,83
2023-05-30T08:43:34.952Z,83
2023-05-30T08:44:41.955Z,83
2023-05-30T08:45:49.169Z,83
2023-05-30T08:46:55.712Z,83
2023-05-30T08:48:02.849Z,84
2023-05-30T08:49:09.945Z,84
2023-05-30T08:50:16.998Z,83
2023-05-30T08:51:24.098Z,82
2023-05-30T08:52:30.651Z,82
2023-05-30T08:53:37.815Z,81
2023-05-30T08:55:52.022Z,80
2023-05-30T08:56:59.144Z,80
2023-05-30T08:58:05.696Z,79
2023-05-30T08:59:12.806Z,79
2023-05-30T09:00:19.978Z,79
2023-05-30T09:01:27.067Z,79
2023-05-30T09:02:34.156Z,79
2023-05-30T09:03:40.738Z,79
2023-05-30T09:04:47.861Z,79
2023-05-30T09:05:54.914Z,78
2023-05-30T09:07:02.095Z,78
2023-05-30T09:08:08.616Z,78
2023-05-30T09:09:15.752Z,78
2023-05-30T09:10:22.874Z,78
2023-05-30T09:11:29.949Z,78
2023-05-30T09:12:37.024Z,77
2023-05-30T09:13:44.162Z,77
2023-05-30T09:14:50.874Z,77
2023-05-30T09:15:57.855Z,77
2023-05-30T09:17:04.998Z,77
2023-05-30T09:18:12.128Z,77
2023-05-30T09:19:18.634Z,77
2023-05-30T09:20:25.851Z,77
2023-05-30T09:21:32.881Z,77
2023-05-30T09:22:39.947Z,77
2023-05-30T09:23:47.056Z,76
2023-05-30T09:24:53.652Z,76
2023-05-30T09:26:00.719Z,76
2023-05-30T09:27:07.857Z,76
2023-05-30T09:28:14.969Z,76
2023-05-30T09:29:22.034Z,76
2023-05-30T09:31:35.824Z,76
2023-05-30T09:32:42.906Z,76
2023-05-30T09:33:49.951Z,76
2023-05-30T09:34:57.157Z,76
2023-05-30T09:36:03.632Z,75
2023-05-30T09:37:10.743Z,75
2023-05-30T09:38:17.882Z,75
2023-05-30T09:39:24.946Z,75
2023-05-30T09:40:32.029Z,75
2023-05-30T09:41:38.679Z,75
2023-05-30T09:42:45.832Z,75
2023-05-30T09:43:52.909Z,75
2023-05-30T09:45:00.027Z,75
2023-05-30T09:46:07.137Z,75
2023-05-30T09:47:13.643Z,74
2023-05-30T09:48:20.781Z,74
2023-05-30T09:49:27.897Z,74
2023-05-30T09:50:34.954Z,74
2023-05-30T09:51:42.083Z,73
2023-05-30T09:52:48.685Z,73
2023-05-30T09:53:55.934Z,73
2023-05-30T09:55:02.887Z,73
2023-05-30T09:56:10.026Z,73
2023-05-30T09:57:17.110Z,73
2023-05-30T09:58:23.665Z,73
2023-05-30T09:59:30.741Z,72
2023-05-30T10:00:37.932Z,72
2023-05-30T10:01:45.041Z,72
2023-05-30T10:02:51.673Z,72
2023-05-30T10:03:58.769Z,72
2023-05-30T10:05:05.863Z,72
2023-05-30T10:06:14.251Z,72
2023-05-30T10:07:20.533Z,73
2023-05-30T10:08:26.591Z,73
2023-05-30T10:09:33.694Z,73
2023-05-30T10:10:40.790Z,72
2023-05-30T10:11:48.064Z,72
2023-05-30T10:12:55.158Z,72
2023-05-30T10:14:01.566Z,72
2023-05-30T10:15:08.660Z,72
2023-05-30T10:16:15.797Z,72
2023-05-30T10:17:23.472Z,72
2023-05-30T10:18:30.049Z,72
2023-05-30T10:19:36.596Z,72
2023-05-30T10:20:43.680Z,72
2023-05-30T10:21:51.954Z,72
2023-05-30T10:22:57.976Z,72
2023-05-30T10:24:05.026Z,71
2023-05-30T10:25:11.662Z,71
2023-05-30T10:26:18.687Z,70
2023-05-30T10:27:25.845Z,70
2023-05-30T10:28:32.893Z,70
2023-05-30T10:29:40.052Z,69
2023-05-30T10:30:46.653Z,69
2023-05-30T10:31:53.758Z,69
2023-05-30T10:33:00.952Z,69
2023-05-30T10:34:08.062Z,69
2023-05-30T10:35:15.082Z,69
2023-05-30T10:36:21.614Z,68
2023-05-30T10:37:28.872Z,68
2023-05-30T10:38:35.857Z,68
2023-05-30T10:39:42.951Z,68
2023-05-30T10:40:50.201Z,68
2023-05-30T10:41:57.787Z,68
2023-05-30T10:43:03.721Z,68
2023-05-30T10:44:10.816Z,68
2023-05-30T10:45:18.015Z,68
2023-05-30T10:46:25.085Z,68
2023-05-30T10:47:31.677Z,68
2023-05-30T10:48:38.781Z,68
2023-05-30T10:49:45.859Z,68
2023-05-30T10:50:52.959Z,68
2023-05-30T10:52:00.180Z,68
2023-05-30T10:53:06.707Z,68
2023-05-30T10:54:13.770Z,67
2023-05-30T10:55:20.876Z,67
2023-05-30T10:56:27.968Z,67
2023-05-30T10:57:35.103Z,67
2023-05-30T10:59:48.800Z,67
2023-05-30T11:00:55.928Z,67
2023-05-30T11:02:02.962Z,67
2023-05-30T11:03:10.110Z,67
2023-05-30T11:04:16.724Z,67
2023-05-30T11:05:23.822Z,67
2023-05-30T11:06:30.921Z,68
2023-05-30T11:07:38.030Z,68
2023-05-30T11:08:44.564Z,68
2023-05-30T11:09:51.669Z,68
2023-05-30T11:10:58.776Z,68
2023-05-30T11:12:05.898Z,68
2023-05-30T11:13:12.989Z,68
2023-05-30T11:14:19.677Z,68
2023-05-30T11:15:26.702Z,67
2023-05-30T11:16:33.893Z,67
2023-05-30T11:17:40.928Z,67
2023-05-30T11:18:48.011Z,67
2023-05-30T11:19:54.584Z,67
2023-05-30T11:21:02.566Z,67
2023-05-30T11:22:08.803Z,67
2023-05-30T11:23:15.928Z,66
2023-05-30T11:24:22.984Z,66
2023-05-30T11:25:29.638Z,66
2023-05-30T11:26:36.705Z,66
2023-05-30T11:27:43.794Z,66
2023-05-30T11:28:50.892Z,66
2023-05-30T11:29:58.031Z,66
2023-05-30T11:31:04.645Z,66
2023-05-30T11:32:11.712Z,66
2023-05-30T11:33:18.884Z,65
2023-05-30T11:34:25.977Z,65
2023-05-30T11:35:33.074Z,66
2023-05-30T11:36:39.630Z,65
2023-05-30T11:37:46.724Z,65
2023-05-30T11:38:54.011Z,65
2023-05-30T11:40:00.913Z,66
2023-05-30T11:41:08.084Z,65
2023-05-30T11:42:14.574Z,65
2023-05-30T11:43:21.742Z,65
2023-05-30T11:44:28.849Z,65
2023-05-30T11:45:35.967Z,65
2023-05-30T11:46:43.055Z,65
2023-05-30T11:47:49.745Z,65
2023-05-30T11:48:56.791Z,65
2023-05-30T11:50:03.842Z,65
2023-05-30T11:51:10.937Z,65
2023-05-30T11:52:18.088Z,65
2023-05-30T11:53:24.641Z,65
2023-05-30T11:54:31.711Z,65
2023-05-30T11:55:38.916Z,65
2023-05-30T11:56:45.991Z,65
2023-05-30T11:57:53.007Z,65
2023-05-30T11:58:59.663Z,65
2023-05-30T12:00:06.746Z,65
2023-05-30T12:01:13.820Z,65
2023-05-30T12:02:21.016Z,65
2023-05-30T12:03:28.216Z,65
2023-05-30T12:04:34.702Z,65
2023-05-30T12:05:41.777Z,64
2023-05-30T12:06:48.888Z,64
2023-05-30T12:07:55.974Z,65
2023-05-30T12:09:02.543Z,65
2023-05-30T12:10:09.777Z,65
2023-05-30T12:11:16.745Z,65
2023-05-30T12:12:23.884Z,65
2023-05-30T12:13:31.668Z,65
2023-05-30T12:14:37.590Z,64
2023-05-30T12:15:44.655Z,64
2023-05-30T12:16:51.818Z,64
2023-05-30T12:17:58.983Z,64
2023-05-30T12:19:06.058Z,64
2023-05-30T12:20:12.741Z,64
2023-05-30T12:21:19.749Z,64
2023-05-30T12:22:26.794Z,64
2023-05-30T12:23:33.878Z,64
2023-05-30T12:24:41.020Z,64
2023-05-30T12:25:47.653Z,64
2023-05-30T12:26:54.671Z,64
2023-05-30T12:28:01.786Z,64
2023-05-30T12:29:08.882Z,64
2023-05-30T12:30:16.009Z,64
2023-05-30T12:31:22.599Z,64
2023-05-30T12:32:31.354Z,64
2023-05-30T12:33:36.816Z,64
2023-05-30T12:34:43.877Z,65
2023-05-30T12:35:51.028Z,64
2023-05-30T12:36:57.598Z,64
2023-05-30T12:38:05.100Z,64
2023-05-30T12:39:11.818Z,64
2023-05-30T12:40:18.922Z,64
2023-05-30T12:41:26.018Z,65
2023-05-30T12:42:32.596Z,65
2023-05-30T12:43:39.706Z,65
2023-05-30T12:44:46.880Z,64
2023-05-30T12:45:53.960Z,65
2023-05-30T12:47:01.035Z,65
2023-05-30T12:48:07.673Z,65
2023-05-30T12:49:14.849Z,65
2023-05-30T12:50:21.839Z,65
2023-05-30T12:51:28.917Z,65
2023-05-30T12:52:36.046Z,65
2023-05-30T12:53:42.615Z,65
2023-05-30T12:54:49.801Z,65
2023-05-30T12:55:56.832Z,65
2023-05-30T12:57:03.948Z,65
2023-05-30T12:58:11.018Z,65
2023-05-30T12:59:17.658Z,65
2023-05-30T13:00:24.730Z,65
2023-05-30T13:01:31.827Z,65
2023-05-30T13:02:39.050Z,65
2023-05-30T13:03:46.129Z,65
2023-05-30T13:04:52.609Z,65
2023-05-30T13:05:59.772Z,65
2023-05-30T13:07:06.818Z,66
2023-05-30T13:08:13.907Z,65
2023-05-30T13:10:27.673Z,65
2023-05-30T13:11:34.772Z,65
2023-05-30T13:12:41.819Z,65
2023-05-30T13:13:49.005Z,65
2023-05-30T13:14:55.622Z,65
2023-05-30T13:16:02.615Z,65
2023-05-30T13:17:09.751Z,65
2023-05-30T13:18:17.516Z,65
2023-05-30T13:19:25.534Z,65
2023-05-30T13:20:31.078Z,66
2023-05-30T13:21:37.632Z,66
2023-05-30T13:22:44.745Z,66
2023-05-30T13:23:51.880Z,66
2023-05-30T13:24:59.013Z,66
2023-05-30T13:26:05.674Z,66
2023-05-30T13:27:12.697Z,66
2023-05-30T13:28:20.294Z,66
2023-05-30T13:29:26.841Z,66
2023-05-30T13:30:34.006Z,66
2023-05-30T13:31:40.568Z,66
2023-05-30T13:32:47.782Z,66
2023-05-30T13:33:54.816Z,66
2023-05-30T13:35:01.852Z,66
2023-05-30T13:36:09.035Z,66
2023-05-30T13:37:15.613Z,66
2023-05-30T13:38:22.665Z,66
2023-05-30T13:39:29.765Z,66
2023-05-30T13:40:36.924Z,66
2023-05-30T13:41:43.971Z,66
2023-05-30T13:42:50.543Z,66
2023-05-30T13:43:57.689Z,66
2023-05-30T13:45:06.060Z,66
2023-05-30T13:46:14.353Z,66
2023-05-30T13:47:19.200Z,66
2023-05-30T13:48:25.587Z,66
2023-05-30T13:49:32.663Z,66
2023-05-30T13:50:39.835Z,66
2023-05-30T13:51:46.905Z,66
2023-05-30T13:52:53.973Z,66
2023-05-30T13:54:02.620Z,66
2023-05-30T13:55:07.742Z,67
2023-05-30T13:56:14.784Z,66
2023-05-30T13:57:21.867Z,66
2023-05-30T13:58:29.060Z,67
2023-05-30T13:59:35.576Z,67
2023-05-30T14:00:42.654Z,67
2023-05-30T14:01:49.863Z,67
2023-05-30T14:02:57.003Z,66
2023-05-30T14:04:04.062Z,67
2023-05-30T14:05:13.476Z,67
2023-05-30T14:06:17.695Z,67
2023-05-30T14:07:24.848Z,67
2023-05-30T14:08:31.951Z,67
2023-05-30T14:09:39.054Z,67
2023-05-30T14:10:47.372Z,67
2023-05-30T14:11:52.673Z,67
2023-05-30T14:14:06.983Z,67
2023-05-30T14:15:14.013Z,67
2023-05-30T14:16:20.672Z,67
2023-05-30T14:17:27.764Z,67
2023-05-30T14:18:34.883Z,67
2023-05-30T14:19:41.907Z,67
2023-05-30T14:20:48.762Z,67
2023-05-30T14:21:55.649Z,67
2023-05-30T14:23:02.729Z,67
2023-05-30T14:24:09.859Z,67
2023-05-30T14:25:17.084Z,67
2023-05-30T14:26:23.499Z,67
2023-05-30T14:27:30.643Z,67
2023-05-30T14:28:37.702Z,67
2023-05-30T14:29:44.838Z,67
2023-05-30T14:30:51.981Z,67
2023-05-30T14:31:59.256Z,67
2023-05-30T14:33:05.804Z,67
2023-05-30T14:34:12.775Z,67
2023-05-30T14:35:19.842Z,67
2023-05-30T14:36:26.984Z,67
2023-05-30T14:37:33.550Z,67
2023-05-30T14:38:40.678Z,67
2023-05-30T14:39:47.714Z,67
2023-05-30T14:40:54.891Z,67
2023-05-30T14:42:01.916Z,67
2023-05-30T14:43:08.558Z,67
2023-05-30T14:44:15.941Z,67
2023-05-30T14:45:22.753Z,67
2023-05-30T14:46:29.871Z,67
2023-05-30T14:47:37.000Z,66
2023-05-30T14:48:43.602Z,67
2023-05-30T14:49:50.622Z,67
2023-05-30T14:50:57.892Z,67
2023-05-30T14:52:04.898Z,67
2023-05-30T14:53:11.957Z,66
2023-05-30T14:54:18.566Z,66
2023-05-30T14:55:25.806Z,66
2023-05-30T14:56:32.766Z,66
2023-05-30T14:57:39.952Z,67
2023-05-30T14:58:46.966Z,67
2023-05-30T14:59:53.562Z,67
2023-05-30T15:01:12.599Z,66
2023-05-30T15:02:07.861Z,66
2023-05-30T15:03:15.017Z,66
2023-05-30T15:04:22.032Z,67
2023-05-30T15:05:28.599Z,67
2023-05-30T15:06:35.683Z,67
2023-05-30T15:07:42.773Z,66
2023-05-30T15:08:49.902Z,66
2023-05-30T15:09:56.504Z,66
2023-05-30T15:11:03.917Z,66
2023-05-30T15:12:10.662Z,66
2023-05-30T15:13:17.885Z,66
2023-05-30T15:14:24.945Z,66
2023-05-30T15:15:31.499Z,66
2023-05-30T15:16:40.525Z,66
2023-05-30T15:17:45.693Z,67
2023-05-30T15:18:52.813Z,66
2023-05-30T15:20:00.028Z,66
2023-05-30T15:21:06.525Z,66
2023-05-30T15:22:13.588Z,66
2023-05-30T15:23:20.696Z,66
2023-05-30T15:24:27.819Z,66
2023-05-30T15:25:34.979Z,66
2023-05-30T15:26:41.505Z,66
2023-05-30T15:27:48.635Z,66
2023-05-30T15:28:55.731Z,66
2023-05-30T15:30:02.791Z,66
2023-05-30T15:31:10.029Z,66
2023-05-30T15:32:16.549Z,66
2023-05-30T15:33:23.605Z,66
2023-05-30T15:34:30.694Z,66
2023-05-30T15:35:38.360Z,66
2023-05-30T15:36:44.955Z,66
2023-05-30T15:37:51.540Z,66
2023-05-30T15:38:58.849Z,66
2023-05-30T15:40:06.664Z,66
2023-05-30T15:41:12.831Z,66
2023-05-30T15:42:19.945Z,66
2023-05-30T15:43:26.577Z,66
2023-05-30T15:44:33.621Z,66
2023-05-30T15:45:40.709Z,66
2023-05-30T15:46:47.879Z,66
2023-05-30T15:47:54.937Z,66
2023-05-30T15:49:01.550Z,66
2023-05-30T15:50:08.706Z,66
2023-05-30T15:51:15.792Z,66
2023-05-30T15:52:22.836Z,66
2023-05-30T15:53:29.956Z,66
2023-05-30T15:54:36.612Z,66
2023-05-30T15:55:43.659Z,66
2023-05-30T15:56:50.712Z,66
2023-05-30T15:57:57.896Z,66
2023-05-30T15:59:04.992Z,66
2023-05-30T16:00:12.084Z,66
2023-05-30T16:01:18.779Z,66
2023-05-30T16:02:25.872Z,66
2023-05-30T16:03:32.839Z,65
2023-05-30T16:04:39.543Z,65
2023-05-30T16:05:46.556Z,65
2023-05-30T16:06:53.656Z,66
2023-05-30T16:08:00.802Z,65
2023-05-30T16:09:07.905Z,65
2023-05-30T16:10:14.457Z,65
2023-05-30T16:11:21.551Z,65
2023-05-30T16:12:28.678Z,65
2023-05-30T16:13:35.774Z,65
2023-05-30T16:14:42.866Z,65
2023-05-30T16:15:50.193Z,65
2023-05-30T16:16:56.669Z,65
2023-05-30T16:18:03.716Z,65